sensor_id;sensor_type;location;lat;lon;timestamp;temperature;humidity
61400;DHT22;47269;48.182;-1.946;2023-03-01T06:02:16;-0.20;99.90
61400;DHT22;47269;48.182;-1.946;2023-03-01T06:04:41;-0.20;99.90
61400;DHT22;47269;48.182;-1.946;2023-03-01T06:07:07;-0.30;99.90
61400;DHT22;47269;48.182;-1.946;2023-03-01T06:09:33;-0.30;99.90
61400;DHT22;47269;48.182;-1.946;2023-03-01T06:11:58;-0.30;99.90
61400;DHT22;47269;48.182;-1.946;2023-03-01T06:14:24;-0.30;99.90
61400;DHT22;47269;48.182;-1.946;2023-03-01T06:16:50;-0.40;99.90
61400;DHT22;47269;48.182;-1.946;2023-03-01T06:19:16;-0.40;99.90
61400;DHT22;47269;48.182;-1.946;2023-03-01T06:21:41;-0.40;99.90
61400;DHT22;47269;48.182;-1.946;2023-03-01T06:24:07;-0.40;99.90
61400;DHT22;47269;48.182;-1.946;2023-03-01T06:26:33;-0.40;99.90
61400;DHT22;47269;48.182;-1.946;2023-03-01T06:28:59;-0.40;99.90
61400;DHT22;47269;48.182;-1.946;2023-03-01T06:31:25;-0.40;99.90
61400;DHT22;47269;48.182;-1.946;2023-03-01T06:33:50;-0.40;99.90
61400;DHT22;47269;48.182;-1.946;2023-03-01T06:36:16;-0.40;99.90
61400;DHT22;47269;48.182;-1.946;2023-03-01T06:38:44;-0.40;99.90
61400;DHT22;47269;48.182;-1.946;2023-03-01T06:41:10;-0.40;99.90
61400;DHT22;47269;48.182;-1.946;2023-03-01T06:43:35;-0.30;99.90
61400;DHT22;47269;48.182;-1.946;2023-03-01T06:46:04;-0.40;99.90
61400;DHT22;47269;48.182;-1.946;2023-03-01T06:48:30;-0.40;99.90
61400;DHT22;47269;48.182;-1.946;2023-03-01T06:50:58;-0.40;99.90
61400;DHT22;47269;48.182;-1.946;2023-03-01T06:53:24;-0.40;99.90
61400;DHT22;47269;48.182;-1.946;2023-03-01T06:55:57;-0.30;99.90
61400;DHT22;47269;48.182;-1.946;2023-03-01T06:58:24;-0.40;99.90
61400;DHT22;47269;48.182;-1.946;2023-03-01T07:00:50;-0.40;99.90
61400;DHT22;47269;48.182;-1.946;2023-03-01T07:03:15;-0.40;99.90
61400;DHT22;47269;48.182;-1.946;2023-03-01T07:05:41;-0.40;99.90
61400;DHT22;47269;48.182;-1.946;2023-03-01T07:08:07;-0.40;99.90
61400;DHT22;47269;48.182;-1.946;2023-03-01T07:10:33;-0.30;99.90
61400;DHT22;47269;48.182;-1.946;2023-03-01T07:12:58;-0.30;99.90
61400;DHT22;47269;48.182;-1.946;2023-03-01T07:15:25;-0.30;99.90
61400;DHT22;47269;48.182;-1.946;2023-03-01T07:17:51;-0.20;99.90
61400;DHT22;47269;48.182;-1.946;2023-03-01T07:20:20;-0.20;99.90
61400;DHT22;47269;48.182;-1.946;2023-03-01T07:22:51;-0.20;99.90
61400;DHT22;47269;48.182;-1.946;2023-03-01T07:25:17;-0.10;99.90
61400;DHT22;47269;48.182;-1.946;2023-03-01T07:27:43;-0.30;99.90
61400;DHT22;47269;48.182;-1.946;2023-03-01T07:30:09;-0.20;99.90
61400;DHT22;47269;48.182;-1.946;2023-03-01T07:32:35;-0.10;99.90
61400;DHT22;47269;48.182;-1.946;2023-03-01T07:35:01;-0.10;99.90
61400;DHT22;47269;48.182;-1.946;2023-03-01T07:37:26;0.00;99.90
61400;DHT22;47269;48.182;-1.946;2023-03-01T07:39:52;0.10;99.90
61400;DHT22;47269;48.182;-1.946;2023-03-01T07:42:18;0.10;99.90
61400;DHT22;47269;48.182;-1.946;2023-03-01T07:44:43;0.10;99.90
61400;DHT22;47269;48.182;-1.946;2023-03-01T07:47:09;0.20;99.90
61400;DHT22;47269;48.182;-1.946;2023-03-01T07:49:35;0.20;99.90
61400;DHT22;47269;48.182;-1.946;2023-03-01T07:52:00;0.30;99.90
61400;DHT22;47269;48.182;-1.946;2023-03-01T07:54:26;0.40;99.90
61400;DHT22;47269;48.182;-1.946;2023-03-01T07:56:52;0.50;99.90
61400;DHT22;47269;48.182;-1.946;2023-03-01T07:59:20;0.60;99.90
61400;DHT22;47269;48.182;-1.946;2023-03-01T08:01:46;0.60;99.90
61400;DHT22;47269;48.182;-1.946;2023-03-01T08:04:12;0.60;99.90
61400;DHT22;47269;48.182;-1.946;2023-03-01T08:06:38;0.70;99.90
61400;DHT22;47269;48.182;-1.946;2023-03-01T08:09:03;0.70;99.90
61400;DHT22;47269;48.182;-1.946;2023-03-01T08:11:29;0.80;99.90
61400;DHT22;47269;48.182;-1.946;2023-03-01T08:13:55;0.90;99.90
61400;DHT22;47269;48.182;-1.946;2023-03-01T08:16:21;1.00;99.90
61400;DHT22;47269;48.182;-1.946;2023-03-01T08:18:47;1.00;99.90
61400;DHT22;47269;48.182;-1.946;2023-03-01T08:21:15;1.10;99.90
61400;DHT22;47269;48.182;-1.946;2023-03-01T08:23:42;1.20;99.90
61400;DHT22;47269;48.182;-1.946;2023-03-01T08:26:11;1.30;99.90
61400;DHT22;47269;48.182;-1.946;2023-03-01T08:28:38;1.30;99.90
61400;DHT22;47269;48.182;-1.946;2023-03-01T08:33:39;1.50;99.90
61400;DHT22;47269;48.182;-1.946;2023-03-01T08:36:06;1.60;99.90
61400;DHT22;47269;48.182;-1.946;2023-03-01T08:38:33;1.60;99.90
61400;DHT22;47269;48.182;-1.946;2023-03-01T08:41:03;1.70;99.90
61400;DHT22;47269;48.182;-1.946;2023-03-01T08:43:29;1.70;99.90
61400;DHT22;47269;48.182;-1.946;2023-03-01T08:45:55;1.80;99.90
61400;DHT22;47269;48.182;-1.946;2023-03-01T08:48:49;1.80;99.90
61400;DHT22;47269;48.182;-1.946;2023-03-01T08:51:19;1.90;99.90
61400;DHT22;47269;48.182;-1.946;2023-03-01T08:53:52;2.00;99.90
61400;DHT22;47269;48.182;-1.946;2023-03-01T08:56:23;2.20;99.90
61400;DHT22;47269;48.182;-1.946;2023-03-01T08:58:49;2.50;99.90
61400;DHT22;47269;48.182;-1.946;2023-03-01T09:01:17;2.70;99.90
61400;DHT22;47269;48.182;-1.946;2023-03-01T09:03:44;3.00;99.90
61400;DHT22;47269;48.182;-1.946;2023-03-01T09:06:11;3.60;99.90
61400;DHT22;47269;48.182;-1.946;2023-03-01T09:08:49;4.10;99.90
61400;DHT22;47269;48.182;-1.946;2023-03-01T09:11:17;4.70;99.90
61400;DHT22;47269;48.182;-1.946;2023-03-01T09:13:53;5.20;99.90
61400;DHT22;47269;48.182;-1.946;2023-03-01T09:16:20;5.10;99.90
61400;DHT22;47269;48.182;-1.946;2023-03-01T09:18:54;5.50;99.90
61400;DHT22;47269;48.182;-1.946;2023-03-01T09:21:22;6.20;99.90
61400;DHT22;47269;48.182;-1.946;2023-03-01T09:23:51;6.90;99.90
61400;DHT22;47269;48.182;-1.946;2023-03-01T09:26:43;6.80;99.90
61400;DHT22;47269;48.182;-1.946;2023-03-01T09:29:19;7.60;99.90
61400;DHT22;47269;48.182;-1.946;2023-03-01T09:31:47;8.30;99.90
61400;DHT22;47269;48.182;-1.946;2023-03-01T09:34:13;8.00;99.90
61400;DHT22;47269;48.182;-1.946;2023-03-01T09:36:44;7.90;99.90
61400;DHT22;47269;48.182;-1.946;2023-03-01T09:39:10;8.60;99.90
61400;DHT22;47269;48.182;-1.946;2023-03-01T09:47:00;10.50;99.90
61400;DHT22;47269;48.182;-1.946;2023-03-01T09:49:28;10.50;99.90
61400;DHT22;47269;48.182;-1.946;2023-03-01T09:52:01;10.50;99.90
61400;DHT22;47269;48.182;-1.946;2023-03-01T09:54:28;10.40;99.90
61400;DHT22;47269;48.182;-1.946;2023-03-01T09:59:57;10.80;99.90
61400;DHT22;47269;48.182;-1.946;2023-03-01T10:02:48;10.70;99.90
61400;DHT22;47269;48.182;-1.946;2023-03-01T10:10:44;11.50;99.90
61400;DHT22;47269;48.182;-1.946;2023-03-01T10:15:56;10.50;99.90
61400;DHT22;47269;48.182;-1.946;2023-03-01T10:18:30;11.50;99.90
61400;DHT22;47269;48.182;-1.946;2023-03-01T10:21:03;11.50;99.90
61400;DHT22;47269;48.182;-1.946;2023-03-01T10:23:36;12.20;99.90
61400;DHT22;47269;48.182;-1.946;2023-03-01T10:29:00;11.40;99.90
61400;DHT22;47269;48.182;-1.946;2023-03-01T10:31:46;11.80;99.90
61400;DHT22;47269;48.182;-1.946;2023-03-01T10:34:16;11.80;99.90
61400;DHT22;47269;48.182;-1.946;2023-03-01T10:36:43;11.90;99.90
61400;DHT22;47269;48.182;-1.946;2023-03-01T10:39:19;12.50;99.90
61400;DHT22;47269;48.182;-1.946;2023-03-01T10:47:44;13.30;98.30
61400;DHT22;47269;48.182;-1.946;2023-03-01T10:50:23;12.80;98.50
61400;DHT22;47269;48.182;-1.946;2023-03-01T10:53:04;13.30;98.40
61400;DHT22;47269;48.182;-1.946;2023-03-01T10:55:39;13.40;96.00
61400;DHT22;47269;48.182;-1.946;2023-03-01T10:58:21;13.10;96.20
61400;DHT22;47269;48.182;-1.946;2023-03-01T11:00:49;13.20;94.90
61400;DHT22;47269;48.182;-1.946;2023-03-01T11:03:22;15.30;94.80
61400;DHT22;47269;48.182;-1.946;2023-03-01T11:06:37;15.90;93.80
61400;DHT22;47269;48.182;-1.946;2023-03-01T11:08:45;14.80;91.60
61400;DHT22;47269;48.182;-1.946;2023-03-01T11:11:33;14.90;91.50
61400;DHT22;47269;48.182;-1.946;2023-03-01T11:16:38;15.50;89.90
61400;DHT22;47269;48.182;-1.946;2023-03-01T11:24:45;15.70;91.40
61400;DHT22;47269;48.182;-1.946;2023-03-01T11:27:18;13.70;88.00
61400;DHT22;47269;48.182;-1.946;2023-03-01T11:29:48;14.20;90.10
61400;DHT22;47269;48.182;-1.946;2023-03-01T11:32:17;14.70;91.60
61400;DHT22;47269;48.182;-1.946;2023-03-01T11:35:14;14.20;87.10
61400;DHT22;47269;48.182;-1.946;2023-03-01T11:40:55;13.00;89.60
61400;DHT22;47269;48.182;-1.946;2023-03-01T11:56:50;14.40;80.90
61400;DHT22;47269;48.182;-1.946;2023-03-01T12:04:33;18.30;83.10
61400;DHT22;47269;48.182;-1.946;2023-03-01T12:09:53;16.50;79.80
61400;DHT22;47269;48.182;-1.946;2023-03-01T12:12:48;16.40;78.80
61400;DHT22;47269;48.182;-1.946;2023-03-01T12:29:42;15.50;79.60
61400;DHT22;47269;48.182;-1.946;2023-03-01T12:35:16;16.40;76.20
61400;DHT22;47269;48.182;-1.946;2023-03-01T12:41:01;15.70;74.30
61400;DHT22;47269;48.182;-1.946;2023-03-01T12:46:48;18.50;69.50
61400;DHT22;47269;48.182;-1.946;2023-03-01T12:50:13;16.50;70.60
61400;DHT22;47269;48.182;-1.946;2023-03-01T12:52:53;16.90;72.10
61400;DHT22;47269;48.182;-1.946;2023-03-01T12:55:38;15.20;70.40
61400;DHT22;47269;48.182;-1.946;2023-03-01T13:11:29;18.20;69.50
61400;DHT22;47269;48.182;-1.946;2023-03-01T13:16:46;15.60;67.80
61400;DHT22;47269;48.182;-1.946;2023-03-01T13:19:22;15.60;68.70
61400;DHT22;47269;48.182;-1.946;2023-03-01T13:21:50;16.20;68.50
61400;DHT22;47269;48.182;-1.946;2023-03-01T13:29:45;17.00;67.80
61400;DHT22;47269;48.182;-1.946;2023-03-01T13:32:35;17.20;68.70
61400;DHT22;47269;48.182;-1.946;2023-03-01T13:37:45;17.60;69.40
61400;DHT22;47269;48.182;-1.946;2023-03-01T13:42:56;17.60;71.00
61400;DHT22;47269;48.182;-1.946;2023-03-01T13:45:34;17.80;71.50
61400;DHT22;47269;48.182;-1.946;2023-03-01T13:48:11;15.30;72.60
61400;DHT22;47269;48.182;-1.946;2023-03-01T13:50:47;17.30;72.40
61400;DHT22;47269;48.182;-1.946;2023-03-01T13:53:18;16.40;73.80
61400;DHT22;47269;48.182;-1.946;2023-03-01T13:55:45;17.10;71.20
61400;DHT22;47269;48.182;-1.946;2023-03-01T13:58:26;17.40;72.90
61400;DHT22;47269;48.182;-1.946;2023-03-01T14:01:04;16.50;75.90
61400;DHT22;47269;48.182;-1.946;2023-03-01T14:03:32;17.30;74.40
61400;DHT22;47269;48.182;-1.946;2023-03-01T14:06:16;16.20;74.50
61400;DHT22;47269;48.182;-1.946;2023-03-01T14:08:46;16.60;76.60
61400;DHT22;47269;48.182;-1.946;2023-03-01T14:16:49;16.50;75.70
61400;DHT22;47269;48.182;-1.946;2023-03-01T14:19:24;16.60;76.70
61400;DHT22;47269;48.182;-1.946;2023-03-01T14:24:50;16.90;77.10
61400;DHT22;47269;48.182;-1.946;2023-03-01T14:27:17;16.50;75.60
61400;DHT22;47269;48.182;-1.946;2023-03-01T14:29:44;15.90;77.00
61400;DHT22;47269;48.182;-1.946;2023-03-01T14:32:25;15.90;76.50
61400;DHT22;47269;48.182;-1.946;2023-03-01T14:34:51;15.30;78.10
61400;DHT22;47269;48.182;-1.946;2023-03-01T14:37:27;14.90;75.80
61400;DHT22;47269;48.182;-1.946;2023-03-01T14:39:53;14.60;75.90
61400;DHT22;47269;48.182;-1.946;2023-03-01T14:42:21;16.30;76.40
61400;DHT22;47269;48.182;-1.946;2023-03-01T14:44:51;16.60;76.20
61400;DHT22;47269;48.182;-1.946;2023-03-01T14:49:59;16.10;79.10
61400;DHT22;47269;48.182;-1.946;2023-03-01T14:52:37;16.60;79.20
61400;DHT22;47269;48.182;-1.946;2023-03-01T14:55:10;14.10;81.10
61400;DHT22;47269;48.182;-1.946;2023-03-01T14:57:43;14.80;82.80
61400;DHT22;47269;48.182;-1.946;2023-03-01T15:00:21;13.60;82.40
61400;DHT22;47269;48.182;-1.946;2023-03-01T15:02:48;14.60;82.40
61400;DHT22;47269;48.182;-1.946;2023-03-01T15:05:24;16.00;83.30
61400;DHT22;47269;48.182;-1.946;2023-03-01T15:07:51;15.70;81.70
61400;DHT22;47269;48.182;-1.946;2023-03-01T15:10:27;15.80;82.30
61400;DHT22;47269;48.182;-1.946;2023-03-01T15:12:53;16.90;81.70
61400;DHT22;47269;48.182;-1.946;2023-03-01T15:18:00;14.40;87.20
61400;DHT22;47269;48.182;-1.946;2023-03-01T15:20:28;15.00;85.80
61400;DHT22;47269;48.182;-1.946;2023-03-01T15:22:56;14.20;88.20
61400;DHT22;47269;48.182;-1.946;2023-03-01T15:25:27;15.30;85.60
61400;DHT22;47269;48.182;-1.946;2023-03-01T15:27:54;15.60;86.00
61400;DHT22;47269;48.182;-1.946;2023-03-01T15:30:23;15.60;88.70
61400;DHT22;47269;48.182;-1.946;2023-03-01T15:36:32;14.10;88.90
61400;DHT22;47269;48.182;-1.946;2023-03-01T15:39:00;13.90;89.00
61400;DHT22;47269;48.182;-1.946;2023-03-01T15:41:32;14.20;90.30
61400;DHT22;47269;48.182;-1.946;2023-03-01T15:43:58;14.00;90.80
61400;DHT22;47269;48.182;-1.946;2023-03-01T15:46:34;14.10;91.30
61400;DHT22;47269;48.182;-1.946;2023-03-01T15:49:17;14.10;90.40
61400;DHT22;47269;48.182;-1.946;2023-03-01T15:51:45;14.00;91.40
61400;DHT22;47269;48.182;-1.946;2023-03-01T15:54:19;13.00;90.90
61400;DHT22;47269;48.182;-1.946;2023-03-01T15:56:46;12.70;90.80
61400;DHT22;47269;48.182;-1.946;2023-03-01T15:59:12;12.80;91.60
61400;DHT22;47269;48.182;-1.946;2023-03-01T16:01:40;12.80;91.70
61400;DHT22;47269;48.182;-1.946;2023-03-01T16:04:05;13.10;91.60
61400;DHT22;47269;48.182;-1.946;2023-03-01T16:06:31;11.50;94.40
61400;DHT22;47269;48.182;-1.946;2023-03-01T16:08:57;10.70;98.90
61400;DHT22;47269;48.182;-1.946;2023-03-01T16:11:23;10.30;99.90
61400;DHT22;47269;48.182;-1.946;2023-03-01T16:13:49;10.30;99.90
61400;DHT22;47269;48.182;-1.946;2023-03-01T16:16:15;9.70;99.90
61400;DHT22;47269;48.182;-1.946;2023-03-01T16:18:46;10.00;99.90
61400;DHT22;47269;48.182;-1.946;2023-03-01T16:21:14;9.50;99.90
61400;DHT22;47269;48.182;-1.946;2023-03-01T16:23:42;9.60;99.90
61400;DHT22;47269;48.182;-1.946;2023-03-01T16:26:08;9.50;99.90
61400;DHT22;47269;48.182;-1.946;2023-03-01T16:28:33;11.00;99.90
61400;DHT22;47269;48.182;-1.946;2023-03-01T16:30:59;11.10;99.90
61400;DHT22;47269;48.182;-1.946;2023-03-01T16:33:26;11.40;99.90
61400;DHT22;47269;48.182;-1.946;2023-03-01T16:35:52;11.10;99.90
61400;DHT22;47269;48.182;-1.946;2023-03-01T16:38:18;10.50;99.90
61400;DHT22;47269;48.182;-1.946;2023-03-01T16:40:48;10.70;99.90
61400;DHT22;47269;48.182;-1.946;2023-03-01T16:43:14;10.10;99.90
61400;DHT22;47269;48.182;-1.946;2023-03-01T16:45:40;9.40;99.90
61400;DHT22;47269;48.182;-1.946;2023-03-01T16:48:10;8.60;99.90
61400;DHT22;47269;48.182;-1.946;2023-03-01T16:50:36;8.30;99.90
61400;DHT22;47269;48.182;-1.946;2023-03-01T16:53:02;8.30;99.90
61400;DHT22;47269;48.182;-1.946;2023-03-01T16:55:28;8.00;99.90
61400;DHT22;47269;48.182;-1.946;2023-03-01T16:57:53;7.80;99.90
61400;DHT22;47269;48.182;-1.946;2023-03-01T17:00:19;8.00;99.90
61400;DHT22;47269;48.182;-1.946;2023-03-01T17:02:46;7.70;99.90
61400;DHT22;47269;48.182;-1.946;2023-03-01T17:05:12;7.70;99.90
61400;DHT22;47269;48.182;-1.946;2023-03-01T17:07:38;7.50;99.90
61400;DHT22;47269;48.182;-1.946;2023-03-01T17:10:06;7.50;99.90
61400;DHT22;47269;48.182;-1.946;2023-03-01T17:12:34;7.70;99.90
61400;DHT22;47269;48.182;-1.946;2023-03-01T17:14:59;7.40;99.90
61400;DHT22;47269;48.182;-1.946;2023-03-01T17:17:26;7.40;99.90
61400;DHT22;47269;48.182;-1.946;2023-03-01T17:19:52;7.40;99.90
61400;DHT22;47269;48.182;-1.946;2023-03-01T17:22:18;7.30;99.90
61400;DHT22;47269;48.182;-1.946;2023-03-01T17:24:44;7.20;99.90
61400;DHT22;47269;48.182;-1.946;2023-03-01T17:27:11;7.10;99.90
61400;DHT22;47269;48.182;-1.946;2023-03-01T17:29:38;7.00;99.90
61400;DHT22;47269;48.182;-1.946;2023-03-01T17:32:04;6.90;99.90
61400;DHT22;47269;48.182;-1.946;2023-03-01T17:34:32;6.90;99.90
61400;DHT22;47269;48.182;-1.946;2023-03-01T17:36:58;6.80;99.90
61400;DHT22;47269;48.182;-1.946;2023-03-01T17:39:24;6.80;99.90
61400;DHT22;47269;48.182;-1.946;2023-03-01T17:41:53;6.70;99.90
61400;DHT22;47269;48.182;-1.946;2023-03-01T17:44:19;6.70;99.90
61400;DHT22;47269;48.182;-1.946;2023-03-01T17:46:47;6.60;99.90
61400;DHT22;47269;48.182;-1.946;2023-03-01T17:49:13;6.50;99.90
61400;DHT22;47269;48.182;-1.946;2023-03-01T17:51:39;6.50;99.90
61400;DHT22;47269;48.182;-1.946;2023-03-01T17:54:04;6.30;99.90
61400;DHT22;47269;48.182;-1.946;2023-03-01T17:56:30;6.30;99.90
61400;DHT22;47269;48.182;-1.946;2023-03-01T17:58:59;6.20;99.90
61400;DHT22;47269;48.182;-1.946;2023-03-01T18:01:25;6.30;99.90
61400;DHT22;47269;48.182;-1.946;2023-03-01T18:03:53;6.20;99.90
61400;DHT22;47269;48.182;-1.946;2023-03-01T18:06:22;6.10;99.90
61400;DHT22;47269;48.182;-1.946;2023-03-01T18:08:48;6.10;99.90
61400;DHT22;47269;48.182;-1.946;2023-03-01T18:11:16;5.90;99.90
61400;DHT22;47269;48.182;-1.946;2023-03-01T18:13:42;6.00;99.90
61400;DHT22;47269;48.182;-1.946;2023-03-01T18:16:10;5.90;99.90
61400;DHT22;47269;48.182;-1.946;2023-03-01T18:18:37;5.90;99.90
61400;DHT22;47269;48.182;-1.946;2023-03-01T18:21:04;5.90;99.90
61400;DHT22;47269;48.182;-1.946;2023-03-01T18:23:31;5.70;99.90
61400;DHT22;47269;48.182;-1.946;2023-03-01T18:25:59;5.80;99.90
61400;DHT22;47269;48.182;-1.946;2023-03-01T18:28:26;5.60;99.90
61400;DHT22;47269;48.182;-1.946;2023-03-01T18:30:56;5.60;99.90
61400;DHT22;47269;48.182;-1.946;2023-03-01T18:33:22;5.70;99.90
61400;DHT22;47269;48.182;-1.946;2023-03-01T18:35:48;5.60;99.90
61400;DHT22;47269;48.182;-1.946;2023-03-01T18:38:15;5.50;99.90
61400;DHT22;47269;48.182;-1.946;2023-03-01T18:40:42;5.40;99.90
61400;DHT22;47269;48.182;-1.946;2023-03-01T18:43:07;5.40;99.90
61400;DHT22;47269;48.182;-1.946;2023-03-01T18:45:33;5.40;99.90
61400;DHT22;47269;48.182;-1.946;2023-03-01T18:47:59;5.50;99.90
61400;DHT22;47269;48.182;-1.946;2023-03-01T18:50:25;5.40;99.90
61400;DHT22;47269;48.182;-1.946;2023-03-01T18:52:50;5.30;99.90
61400;DHT22;47269;48.182;-1.946;2023-03-01T18:55:16;5.20;99.90
61400;DHT22;47269;48.182;-1.946;2023-03-01T18:57:42;5.20;99.90
61400;DHT22;47269;48.182;-1.946;2023-03-01T19:00:08;5.10;99.90
61400;DHT22;47269;48.182;-1.946;2023-03-01T19:02:34;5.10;99.90
61400;DHT22;47269;48.182;-1.946;2023-03-01T19:05:00;5.10;99.90
61400;DHT22;47269;48.182;-1.946;2023-03-01T19:07:25;5.10;99.90
61400;DHT22;47269;48.182;-1.946;2023-03-01T19:09:51;5.10;99.90
61400;DHT22;47269;48.182;-1.946;2023-03-01T19:12:17;5.10;99.90
61400;DHT22;47269;48.182;-1.946;2023-03-01T19:14:42;5.10;99.90
61400;DHT22;47269;48.182;-1.946;2023-03-01T19:17:08;5.10;99.90
61400;DHT22;47269;48.182;-1.946;2023-03-01T19:19:34;5.00;99.90
61400;DHT22;47269;48.182;-1.946;2023-03-01T19:22:01;5.10;99.90
61400;DHT22;47269;48.182;-1.946;2023-03-01T19:24:27;5.00;99.90
61400;DHT22;47269;48.182;-1.946;2023-03-01T19:26:55;5.00;99.90
61400;DHT22;47269;48.182;-1.946;2023-03-01T19:29:21;5.00;99.90
61400;DHT22;47269;48.182;-1.946;2023-03-01T19:31:47;5.10;99.90
61400;DHT22;47269;48.182;-1.946;2023-03-01T19:34:13;5.00;99.90
61400;DHT22;47269;48.182;-1.946;2023-03-01T19:36:40;4.90;99.90
61400;DHT22;47269;48.182;-1.946;2023-03-01T19:39:07;5.00;99.90
61400;DHT22;47269;48.182;-1.946;2023-03-01T19:41:33;5.00;99.90
61400;DHT22;47269;48.182;-1.946;2023-03-01T19:43:59;4.90;99.90
61400;DHT22;47269;48.182;-1.946;2023-03-01T19:46:29;4.80;99.90
61400;DHT22;47269;48.182;-1.946;2023-03-01T19:48:54;4.80;99.90
61400;DHT22;47269;48.182;-1.946;2023-03-01T19:51:21;4.80;99.90
61400;DHT22;47269;48.182;-1.946;2023-03-01T19:53:47;4.70;99.90
61400;DHT22;47269;48.182;-1.946;2023-03-01T19:56:13;4.70;99.90
61400;DHT22;47269;48.182;-1.946;2023-03-01T19:58:39;4.70;99.90
61400;DHT22;47269;48.182;-1.946;2023-03-01T20:01:13;4.70;99.90
61400;DHT22;47269;48.182;-1.946;2023-03-01T20:03:39;4.70;99.90
61400;DHT22;47269;48.182;-1.946;2023-03-01T20:06:15;4.60;99.90
61400;DHT22;47269;48.182;-1.946;2023-03-01T20:08:45;4.50;99.90
61400;DHT22;47269;48.182;-1.946;2023-03-01T20:11:12;4.50;99.90
61400;DHT22;47269;48.182;-1.946;2023-03-01T20:13:38;4.50;99.90
61400;DHT22;47269;48.182;-1.946;2023-03-01T20:16:04;4.50;99.90
61400;DHT22;47269;48.182;-1.946;2023-03-01T20:18:30;4.40;99.90
61400;DHT22;47269;48.182;-1.946;2023-03-01T20:20:58;4.30;99.90
61400;DHT22;47269;48.182;-1.946;2023-03-01T20:23:24;4.30;99.90
61400;DHT22;47269;48.182;-1.946;2023-03-01T20:25:50;4.30;99.90
61400;DHT22;47269;48.182;-1.946;2023-03-01T20:28:17;4.30;99.90
61400;DHT22;47269;48.182;-1.946;2023-03-01T20:30:44;4.30;99.90
61400;DHT22;47269;48.182;-1.946;2023-03-01T20:33:09;4.40;99.90
61400;DHT22;47269;48.182;-1.946;2023-03-01T20:35:35;4.30;99.90
61400;DHT22;47269;48.182;-1.946;2023-03-01T20:38:02;4.20;99.90
61400;DHT22;47269;48.182;-1.946;2023-03-01T20:40:28;4.20;99.90
61400;DHT22;47269;48.182;-1.946;2023-03-01T20:42:54;4.20;99.90
61400;DHT22;47269;48.182;-1.946;2023-03-01T20:45:20;4.10;99.90
61400;DHT22;47269;48.182;-1.946;2023-03-01T20:47:47;4.10;99.90
61400;DHT22;47269;48.182;-1.946;2023-03-01T20:50:14;4.00;99.90
61400;DHT22;47269;48.182;-1.946;2023-03-01T20:52:40;4.00;99.90
61400;DHT22;47269;48.182;-1.946;2023-03-01T20:55:06;4.00;99.90
61400;DHT22;47269;48.182;-1.946;2023-03-01T20:57:33;4.00;99.90
61400;DHT22;47269;48.182;-1.946;2023-03-01T20:59:59;4.00;99.90
61400;DHT22;47269;48.182;-1.946;2023-03-01T21:02:25;4.00;99.90
61400;DHT22;47269;48.182;-1.946;2023-03-01T21:04:51;3.80;99.90
61400;DHT22;47269;48.182;-1.946;2023-03-01T21:07:16;3.90;99.90
61400;DHT22;47269;48.182;-1.946;2023-03-01T21:09:42;3.90;99.90
61400;DHT22;47269;48.182;-1.946;2023-03-01T21:12:10;3.80;99.90
61400;DHT22;47269;48.182;-1.946;2023-03-01T21:14:36;3.80;99.90
61400;DHT22;47269;48.182;-1.946;2023-03-01T21:17:15;3.80;99.90
61400;DHT22;47269;48.182;-1.946;2023-03-01T21:19:42;3.70;99.90
61400;DHT22;47269;48.182;-1.946;2023-03-01T21:22:10;3.70;99.90
61400;DHT22;47269;48.182;-1.946;2023-03-01T21:24:36;3.60;99.90
61400;DHT22;47269;48.182;-1.946;2023-03-01T21:27:02;3.70;99.90
61400;DHT22;47269;48.182;-1.946;2023-03-01T21:29:32;3.70;99.90
61400;DHT22;47269;48.182;-1.946;2023-03-01T21:31:58;3.70;99.90
61400;DHT22;47269;48.182;-1.946;2023-03-01T21:34:24;3.70;99.90
61400;DHT22;47269;48.182;-1.946;2023-03-01T21:36:50;3.70;99.90
61400;DHT22;47269;48.182;-1.946;2023-03-01T21:39:15;3.70;99.90
61400;DHT22;47269;48.182;-1.946;2023-03-01T21:41:41;3.70;99.90
61400;DHT22;47269;48.182;-1.946;2023-03-01T21:44:07;3.70;99.90
61400;DHT22;47269;48.182;-1.946;2023-03-01T21:46:36;3.70;99.90
61400;DHT22;47269;48.182;-1.946;2023-03-01T21:49:03;3.80;99.90
61400;DHT22;47269;48.182;-1.946;2023-03-01T21:51:30;3.70;99.90
61400;DHT22;47269;48.182;-1.946;2023-03-01T21:53:57;3.70;99.90
61400;DHT22;47269;48.182;-1.946;2023-03-01T21:56:25;3.70;99.90
61400;DHT22;47269;48.182;-1.946;2023-03-01T21:58:51;3.70;99.90
61400;DHT22;47269;48.182;-1.946;2023-03-01T22:01:20;3.60;99.90
61400;DHT22;47269;48.182;-1.946;2023-03-01T22:03:49;3.60;99.90
61400;DHT22;47269;48.182;-1.946;2023-03-01T22:06:18;3.60;99.90
61400;DHT22;47269;48.182;-1.946;2023-03-01T22:08:50;3.50;99.90
61400;DHT22;47269;48.182;-1.946;2023-03-01T22:11:17;3.40;99.90
61400;DHT22;47269;48.182;-1.946;2023-03-01T22:13:47;3.40;99.90
61400;DHT22;47269;48.182;-1.946;2023-03-01T22:16:20;3.30;99.90
61400;DHT22;47269;48.182;-1.946;2023-03-01T22:18:47;3.20;99.90
61400;DHT22;47269;48.182;-1.946;2023-03-01T22:21:12;3.20;99.90
61400;DHT22;47269;48.182;-1.946;2023-03-01T22:23:39;3.20;99.90
61400;DHT22;47269;48.182;-1.946;2023-03-01T22:26:06;3.20;99.90
61400;DHT22;47269;48.182;-1.946;2023-03-01T22:28:32;3.20;99.90
61400;DHT22;47269;48.182;-1.946;2023-03-01T22:31:02;3.10;99.90
61400;DHT22;47269;48.182;-1.946;2023-03-01T22:33:28;3.00;99.90
61400;DHT22;47269;48.182;-1.946;2023-03-01T22:35:56;2.90;99.90
61400;DHT22;47269;48.182;-1.946;2023-03-01T22:38:22;2.80;99.90
61400;DHT22;47269;48.182;-1.946;2023-03-01T22:41:02;2.80;99.90
61400;DHT22;47269;48.182;-1.946;2023-03-01T22:43:29;2.80;99.90
61400;DHT22;47269;48.182;-1.946;2023-03-01T22:45:55;2.90;99.90
61400;DHT22;47269;48.182;-1.946;2023-03-01T22:48:21;2.70;99.90
61400;DHT22;47269;48.182;-1.946;2023-03-01T22:50:47;2.70;99.90
61400;DHT22;47269;48.182;-1.946;2023-03-01T22:53:14;2.80;99.90
61400;DHT22;47269;48.182;-1.946;2023-03-01T22:55:40;2.80;99.90
61400;DHT22;47269;48.182;-1.946;2023-03-01T22:58:06;2.70;99.90
